メインページ
METAR-TAF:

METAR-TAF

空港 :

香港, 中華人民共和国

香港国際空港

緯度: 22-19N, 経度: 113-55E, 海抜: 9m

現時点の気象観測

当レポートは31分前の16:00(UTC)に作成
南/南東の風 10kt、南東から南/南西の間で変化する
気温 29°C
湿度 79%
気圧 1009 hPa
視程10km以上
高度1500ftの雲はほとんどない
高度3500ftの雲は散在している
弱いにわか雨

METAR: VHHH 221600Z 16010KT 140V200 9999 -SHRA FEW015 SCT035 29/25 Q1009 NOSIG

時間: 00:31 (16:31 UTC)

予報

当レポートは5時間31分前の11:00(UTC)に作成
予報は22日の 12時(UTC)から 23日の 18時(UTC)まで有効
南/南西の風 10kt
視程10km以上
高度1500ftの雲はほとんどない
高度3000ftの雲は散在している

TAF: VHHH 221100Z 2212/2318 20010KT 9999 FEW015 SCT030 TX33/2306Z TN29/2223Z

4,000以上の空港の気象観測と天気予報(METAR報とTAF報)

利用可能な観測所は地図上に黄色い丸と赤い丸で示す。

丸の上にカーソルを重ねると観測所名を参照できる。

次にクリックすると気象観測と天気予報を参照できる。

マップの切り替え:黒色「×」印の緑ボタンをクリックして拡大、「-」印の緑ボタンをクリックして縮小、緑色の三角印をクリックして隣りの地図に切り替え


METAR-TAF: